createdAt,value
2023-03-21T00:01:34.682Z,3.33
2023-03-21T00:04:01.177Z,3.35
2023-03-21T00:06:27.677Z,3.27
2023-03-21T00:08:54.103Z,3.42
2023-03-21T00:11:20.937Z,3.46
2023-03-21T00:13:47.373Z,3.41
2023-03-21T00:16:18.545Z,3.47
2023-03-21T00:18:54.717Z,3.32
2023-03-21T00:21:44.010Z,3.29
2023-03-21T00:24:08.029Z,3.26
2023-03-21T00:26:34.481Z,3.30
2023-03-21T00:29:00.900Z,3.34
2023-03-21T00:31:27.295Z,3.35
2023-03-21T00:33:53.672Z,3.41
2023-03-21T00:36:20.183Z,3.40
2023-03-21T00:38:46.728Z,3.43
2023-03-21T00:41:35.168Z,3.41
2023-03-21T00:43:59.844Z,3.47
2023-03-21T00:46:30.140Z,3.52
2023-03-21T00:49:03.032Z,3.52
2023-03-21T00:51:29.456Z,3.51
2023-03-21T00:53:56.756Z,3.64
2023-03-21T00:56:23.181Z,3.69
2023-03-21T00:58:49.666Z,3.68
2023-03-21T01:01:16.159Z,3.68
2023-03-21T01:03:42.585Z,3.70
2023-03-21T01:06:10.212Z,3.59
2023-03-21T01:08:51.044Z,3.43
2023-03-21T01:11:19.569Z,3.55
2023-03-21T01:13:53.762Z,3.49
2023-03-21T01:16:22.496Z,3.55
2023-03-21T01:18:48.942Z,3.58
2023-03-21T01:21:15.350Z,3.66
2023-03-21T01:23:42.003Z,3.69
2023-03-21T01:26:08.909Z,3.52
2023-03-21T01:28:35.435Z,3.63
2023-03-21T01:31:02.125Z,3.57
2023-03-21T01:33:28.584Z,3.60
2023-03-21T01:36:03.359Z,3.58
2023-03-21T01:38:36.644Z,3.52
2023-03-21T01:41:08.609Z,3.54
2023-03-21T01:43:40.621Z,3.44
2023-03-21T01:46:10.466Z,3.52
2023-03-21T01:48:36.927Z,3.58
2023-03-21T01:51:03.282Z,3.59
2023-03-21T01:53:29.999Z,3.66
2023-03-21T01:55:58.222Z,3.69
2023-03-21T01:58:24.691Z,3.70
2023-03-21T02:00:51.367Z,3.64
2023-03-21T02:03:29.551Z,3.65
2023-03-21T02:06:01.589Z,3.65
2023-03-21T02:08:39.288Z,3.60
2023-03-21T02:11:07.123Z,3.66
2023-03-21T02:13:33.637Z,3.71
2023-03-21T02:15:59.946Z,3.71
2023-03-21T02:18:32.335Z,3.77
2023-03-21T02:21:22.696Z,3.79
2023-03-21T02:23:55.284Z,3.86
2023-03-21T02:26:48.243Z,3.84
2023-03-21T02:29:35.315Z,3.87
2023-03-21T02:32:22.422Z,3.74
2023-03-21T02:34:59.792Z,3.70
2023-03-21T02:37:38.286Z,3.89
2023-03-21T02:40:23.810Z,3.85
2023-03-21T02:43:14.182Z,3.83
2023-03-21T02:45:53.489Z,3.79
2023-03-21T02:48:29.286Z,3.73
2023-03-21T02:50:59.937Z,3.78
2023-03-21T02:53:27.526Z,3.83
2023-03-21T02:55:53.924Z,3.88
2023-03-21T02:58:20.989Z,3.94
2023-03-21T03:00:47.364Z,3.87
2023-03-21T03:03:24.845Z,3.93
2023-03-21T03:05:58.608Z,3.94
2023-03-21T03:08:50.168Z,4.07
2023-03-21T03:11:20.612Z,4.02
2023-03-21T03:13:50.086Z,4.08
2023-03-21T03:16:16.768Z,4.06
2023-03-21T03:18:52.491Z,4.08
2023-03-21T03:21:18.928Z,4.11
2023-03-21T03:23:55.709Z,4.08
2023-03-21T03:26:22.187Z,4.13
2023-03-21T03:28:50.395Z,4.10
2023-03-21T03:31:20.736Z,4.11
2023-03-21T03:33:48.429Z,4.01
2023-03-21T03:36:30.350Z,3.96
2023-03-21T03:38:58.390Z,4.02
2023-03-21T03:41:25.991Z,4.11
2023-03-21T03:43:53.889Z,4.04
2023-03-21T03:46:35.179Z,4.08
2023-03-21T03:49:02.900Z,4.00
2023-03-21T03:51:31.086Z,3.98
2023-03-21T03:53:58.839Z,3.97
2023-03-21T03:56:25.481Z,3.95
2023-03-21T03:58:52.026Z,3.96
2023-03-21T04:01:18.448Z,3.94
2023-03-21T04:03:50.505Z,3.93
2023-03-21T04:06:19.367Z,3.80
2023-03-21T04:08:45.781Z,3.86
2023-03-21T04:11:15.424Z,3.92
2023-03-21T04:13:41.959Z,3.89
2023-03-21T04:16:08.805Z,3.84
2023-03-21T04:18:35.232Z,3.84
2023-03-21T04:21:01.809Z,3.84
2023-03-21T04:23:28.248Z,3.86
2023-03-21T04:25:57.254Z,3.76
2023-03-21T04:28:23.994Z,3.70
2023-03-21T04:31:01.199Z,3.71
2023-03-21T04:33:29.961Z,3.78
2023-03-21T04:35:56.420Z,3.67
2023-03-21T04:38:23.413Z,3.65
2023-03-21T04:40:50.024Z,3.67
2023-03-21T04:43:16.372Z,3.77
2023-03-21T04:45:42.906Z,3.73
2023-03-21T04:48:09.507Z,3.72
2023-03-21T04:50:36.214Z,3.73
2023-03-21T04:53:02.796Z,3.66
2023-03-21T04:55:29.228Z,3.65
2023-03-21T04:57:55.661Z,3.62
2023-03-21T05:00:22.123Z,3.52
2023-03-21T05:02:48.566Z,3.63
2023-03-21T05:05:15.070Z,3.55
2023-03-21T05:07:42.126Z,3.65
2023-03-21T05:10:09.607Z,3.60
2023-03-21T05:12:36.023Z,3.63
2023-03-21T05:15:02.961Z,3.57
2023-03-21T05:17:29.524Z,3.62
2023-03-21T05:19:56.141Z,3.72
2023-03-21T05:22:22.947Z,3.70
2023-03-21T05:24:49.869Z,3.63
2023-03-21T05:27:19.346Z,3.70
2023-03-21T05:29:45.828Z,3.72
2023-03-21T05:32:12.267Z,3.75
2023-03-21T05:34:38.696Z,3.76
2023-03-21T05:37:05.130Z,3.86
2023-03-21T05:39:31.530Z,3.89
2023-03-21T05:41:57.962Z,3.94
2023-03-21T05:44:24.362Z,3.98
2023-03-21T05:46:50.795Z,3.98
2023-03-21T05:49:17.290Z,4.07
2023-03-21T05:51:43.717Z,4.06
2023-03-21T05:54:10.277Z,4.07
2023-03-21T05:56:36.856Z,4.07
2023-03-21T05:59:03.416Z,4.11
2023-03-21T06:01:30.124Z,4.23
2023-03-21T06:03:56.572Z,4.25
2023-03-21T06:06:22.971Z,4.37
2023-03-21T06:08:49.876Z,4.44
2023-03-21T06:11:35.884Z,4.46
2023-03-21T06:14:02.417Z,4.42
2023-03-21T06:16:28.914Z,4.46
2023-03-21T06:18:55.552Z,4.54
2023-03-21T06:21:22.079Z,4.65
2023-03-21T06:23:48.841Z,4.66
2023-03-21T06:26:15.203Z,4.77
2023-03-21T06:28:41.613Z,4.80
2023-03-21T06:31:08.042Z,4.87
2023-03-21T06:33:34.581Z,4.99
2023-03-21T06:36:00.995Z,5.02
2023-03-21T06:38:27.527Z,5.17
2023-03-21T06:40:53.936Z,5.21
2023-03-21T06:43:20.329Z,5.14
2023-03-21T06:45:46.801Z,5.20
2023-03-21T06:48:13.248Z,5.14
2023-03-21T06:50:39.795Z,5.32
2023-03-21T06:53:06.809Z,5.36
2023-03-21T06:55:33.257Z,5.48
2023-03-21T06:57:59.820Z,5.65
2023-03-21T07:00:26.257Z,5.61
2023-03-21T07:02:52.826Z,5.71
2023-03-21T07:05:19.795Z,5.86
2023-03-21T07:07:46.586Z,6.00
2023-03-21T07:10:13.080Z,5.97
2023-03-21T07:12:39.585Z,6.07
2023-03-21T07:15:08.106Z,6.19
2023-03-21T07:17:34.784Z,6.37
2023-03-21T07:20:01.279Z,6.64
2023-03-21T07:22:29.319Z,6.86
2023-03-21T07:25:04.414Z,7.18
2023-03-21T07:27:34.039Z,7.42
2023-03-21T07:30:00.516Z,7.65
2023-03-21T07:32:27.009Z,7.83
2023-03-21T07:34:54.316Z,8.31
2023-03-21T07:37:20.878Z,8.75
2023-03-21T07:39:47.295Z,8.96
2023-03-21T07:42:13.752Z,9.24
2023-03-21T07:44:40.629Z,9.63
2023-03-21T07:47:07.025Z,9.79
2023-03-21T07:49:34.883Z,10.90
2023-03-21T07:52:02.414Z,11.78
2023-03-21T07:54:29.414Z,12.84
2023-03-21T07:56:56.148Z,12.70
2023-03-21T07:59:23.709Z,13.78
2023-03-21T08:01:50.221Z,14.55
2023-03-21T08:04:16.749Z,15.04
2023-03-21T08:06:43.921Z,15.22
2023-03-21T08:09:10.491Z,15.53
2023-03-21T08:11:36.882Z,15.97
2023-03-21T08:14:03.420Z,15.89
2023-03-21T08:16:30.677Z,16.19
2023-03-21T08:18:57.181Z,15.55
2023-03-21T08:21:23.762Z,15.94
2023-03-21T08:23:50.306Z,16.31
2023-03-21T08:26:16.691Z,16.90
2023-03-21T08:28:43.244Z,17.05
2023-03-21T08:31:10.695Z,17.80
2023-03-21T08:33:37.125Z,18.12
2023-03-21T08:36:03.999Z,18.25
2023-03-21T08:38:30.675Z,17.66
2023-03-21T08:40:59.794Z,18.02
2023-03-21T08:43:26.959Z,18.86
2023-03-21T08:45:53.428Z,18.99
2023-03-21T08:48:19.861Z,19.19
2023-03-21T08:50:46.418Z,19.62
2023-03-21T08:53:12.905Z,19.20
2023-03-21T08:55:39.466Z,20.20
2023-03-21T08:58:05.919Z,19.60
2023-03-21T09:00:32.369Z,20.51
2023-03-21T09:02:58.817Z,20.51
2023-03-21T09:05:25.306Z,20.70
2023-03-21T09:07:51.742Z,20.22
2023-03-21T09:10:24.630Z,19.51
2023-03-21T09:12:51.738Z,20.32
2023-03-21T09:15:19.813Z,20.71
2023-03-21T09:17:46.301Z,20.78
2023-03-21T09:20:14.569Z,20.77
2023-03-21T09:22:42.933Z,20.02
2023-03-21T09:25:09.456Z,20.28
2023-03-21T09:27:36.125Z,20.69
2023-03-21T09:30:02.599Z,20.42
2023-03-21T09:32:29.026Z,20.90
2023-03-21T09:34:55.423Z,20.96
2023-03-21T09:37:21.999Z,21.39
2023-03-21T09:39:48.712Z,21.62
2023-03-21T09:42:32.382Z,21.57
2023-03-21T09:45:01.912Z,22.53
2023-03-21T09:47:30.074Z,21.49
2023-03-21T09:50:14.477Z,21.11
2023-03-21T09:53:00.533Z,20.15
2023-03-21T09:55:31.733Z,20.35
2023-03-21T09:58:07.033Z,20.77
2023-03-21T10:00:34.874Z,21.24
2023-03-21T10:03:03.206Z,21.03
2023-03-21T10:05:30.265Z,19.81
2023-03-21T10:07:59.533Z,20.06
2023-03-21T10:10:29.533Z,20.03
2023-03-21T10:12:56.184Z,21.45
2023-03-21T10:15:24.466Z,19.79
2023-03-21T10:17:52.706Z,18.67
2023-03-21T10:20:20.442Z,18.34
2023-03-21T10:22:47.451Z,17.94
2023-03-21T10:25:16.436Z,18.32
2023-03-21T10:27:42.924Z,18.88
2023-03-21T10:30:09.712Z,19.30
2023-03-21T10:32:36.504Z,19.98
2023-03-21T10:35:03.009Z,20.10
2023-03-21T10:37:29.427Z,19.45
2023-03-21T10:39:56.457Z,20.47
2023-03-21T10:42:26.975Z,21.34
2023-03-21T10:44:54.140Z,20.37
2023-03-21T10:47:21.610Z,17.66
2023-03-21T10:50:17.356Z,18.06
2023-03-21T10:52:34.828Z,17.61
2023-03-21T10:55:08.890Z,17.51
2023-03-21T10:57:35.310Z,17.35
2023-03-21T11:00:01.911Z,17.48
2023-03-21T11:02:29.997Z,17.75
2023-03-21T11:04:56.552Z,17.82
2023-03-21T11:07:23.063Z,16.90
2023-03-21T11:09:56.397Z,16.31
2023-03-21T11:12:30.405Z,15.82
2023-03-21T11:14:56.832Z,17.01
2023-03-21T11:17:25.531Z,16.63
2023-03-21T11:19:59.082Z,17.52
2023-03-21T11:22:26.448Z,18.33
2023-03-21T11:24:53.614Z,17.92
2023-03-21T11:27:20.135Z,16.37
2023-03-21T11:29:47.857Z,16.88
2023-03-21T11:32:21.356Z,16.74
2023-03-21T11:34:47.703Z,16.88
2023-03-21T11:37:33.241Z,16.20
2023-03-21T11:40:19.889Z,16.72
2023-03-21T11:42:47.441Z,16.78
2023-03-21T11:45:15.310Z,16.82
2023-03-21T11:47:43.370Z,16.43
2023-03-21T11:50:30.108Z,15.61
2023-03-21T11:53:06.147Z,16.19
2023-03-21T11:55:41.359Z,16.35
2023-03-21T11:58:20.090Z,16.64
2023-03-21T12:00:55.923Z,16.27
2023-03-21T12:03:47.441Z,16.35
2023-03-21T12:06:17.464Z,15.88
2023-03-21T12:08:43.899Z,15.69
2023-03-21T12:11:22.070Z,16.38
2023-03-21T12:13:51.735Z,15.90
2023-03-21T12:16:21.207Z,16.04
2023-03-21T12:18:59.612Z,15.21
2023-03-21T12:21:28.674Z,15.19
2023-03-21T12:24:06.038Z,15.80
2023-03-21T12:26:33.265Z,15.02
2023-03-21T12:28:59.601Z,15.40
2023-03-21T12:31:28.518Z,15.49
2023-03-21T12:33:55.035Z,15.39
2023-03-21T12:36:37.658Z,15.13
2023-03-21T12:39:08.495Z,15.59
2023-03-21T12:41:39.451Z,15.80
2023-03-21T12:44:09.069Z,15.86
2023-03-21T12:46:45.330Z,15.74
2023-03-21T12:49:44.201Z,15.52
2023-03-21T12:52:17.147Z,15.23
2023-03-21T12:54:47.588Z,14.96
2023-03-21T12:57:16.227Z,14.84
2023-03-21T12:59:48.736Z,14.96
2023-03-21T13:02:18.041Z,15.23
2023-03-21T13:04:48.481Z,15.00
2023-03-21T13:07:15.957Z,15.30
2023-03-21T13:09:42.406Z,15.31
2023-03-21T13:12:29.109Z,15.59
2023-03-21T13:15:23.649Z,15.64
2023-03-21T13:17:52.594Z,15.54
2023-03-21T13:20:22.024Z,15.66
2023-03-21T13:22:48.445Z,15.78
2023-03-21T13:25:19.174Z,15.86
2023-03-21T13:27:52.166Z,15.71
2023-03-21T13:30:18.602Z,15.44
2023-03-21T13:32:47.177Z,15.80
2023-03-21T13:35:22.781Z,15.67
2023-03-21T13:38:09.489Z,15.36
2023-03-21T13:40:38.184Z,15.54
2023-03-21T13:43:04.868Z,14.98
2023-03-21T13:45:54.644Z,14.99
2023-03-21T13:48:27.493Z,15.26
2023-03-21T13:51:00.731Z,15.24
2023-03-21T13:53:41.151Z,15.05
2023-03-21T13:56:09.051Z,15.18
2023-03-21T13:58:44.338Z,15.36
2023-03-21T14:01:30.406Z,15.52
2023-03-21T14:03:58.379Z,15.40
2023-03-21T14:06:25.497Z,14.99
2023-03-21T14:08:52.098Z,15.11
2023-03-21T14:11:19.009Z,15.24
2023-03-21T14:13:51.389Z,15.38
2023-03-21T14:16:19.112Z,15.13
2023-03-21T14:18:55.109Z,14.94
2023-03-21T14:21:26.070Z,14.73
2023-03-21T14:24:01.254Z,14.91
2023-03-21T14:26:29.151Z,14.95
2023-03-21T14:28:55.553Z,14.95
2023-03-21T14:31:23.140Z,14.55
2023-03-21T14:33:53.602Z,14.37
2023-03-21T14:36:21.808Z,14.53
2023-03-21T14:39:02.287Z,14.48
2023-03-21T14:41:29.076Z,14.38
2023-03-21T14:44:12.090Z,14.28
2023-03-21T14:46:39.009Z,14.46
2023-03-21T14:49:12.420Z,14.38
2023-03-21T14:51:40.528Z,14.27
2023-03-21T14:54:06.945Z,14.40
2023-03-21T14:56:34.351Z,14.29
2023-03-21T14:59:00.862Z,14.36
2023-03-21T15:01:31.201Z,14.09
2023-03-21T15:04:00.396Z,14.21
2023-03-21T15:06:28.022Z,14.20
2023-03-21T15:09:15.420Z,14.32
2023-03-21T15:11:41.884Z,14.21
2023-03-21T15:14:08.914Z,14.47
2023-03-21T15:16:35.534Z,14.53
2023-03-21T15:19:02.209Z,14.30
2023-03-21T15:21:29.865Z,14.27
2023-03-21T15:23:57.892Z,14.05
2023-03-21T15:26:25.020Z,14.12
2023-03-21T15:28:55.229Z,14.01
2023-03-21T15:31:25.908Z,13.96
2023-03-21T15:33:52.712Z,13.86
2023-03-21T15:36:23.235Z,13.88
2023-03-21T15:38:49.657Z,13.72
2023-03-21T15:41:19.103Z,13.78
2023-03-21T15:43:49.023Z,13.77
2023-03-21T15:46:16.288Z,13.45
2023-03-21T15:48:42.891Z,13.32
2023-03-21T15:51:27.906Z,13.39
2023-03-21T15:53:54.483Z,13.38
2023-03-21T15:56:20.959Z,13.32
2023-03-21T15:58:47.890Z,13.35
2023-03-21T16:01:23.235Z,13.08
2023-03-21T16:03:55.325Z,13.01
2023-03-21T16:06:23.906Z,13.04
2023-03-21T16:08:52.903Z,12.78
2023-03-21T16:11:23.385Z,12.80
2023-03-21T16:13:50.040Z,12.83
2023-03-21T16:16:19.524Z,12.85
2023-03-21T16:18:45.967Z,12.66
2023-03-21T16:21:12.946Z,12.49
2023-03-21T16:23:39.374Z,12.61
2023-03-21T16:26:05.891Z,12.61
2023-03-21T16:28:32.867Z,12.59
2023-03-21T16:30:59.324Z,12.58
2023-03-21T16:33:25.863Z,12.44
2023-03-21T16:35:52.266Z,12.39
2023-03-21T16:38:18.731Z,12.29
2023-03-21T16:40:45.838Z,12.31
2023-03-21T16:43:12.294Z,12.22
2023-03-21T16:45:39.411Z,12.11
2023-03-21T16:48:06.012Z,11.94
2023-03-21T16:50:33.384Z,11.96
2023-03-21T16:52:59.980Z,11.88
2023-03-21T16:55:26.546Z,11.72
2023-03-21T16:57:53.070Z,11.55
2023-03-21T17:00:24.817Z,11.14
2023-03-21T17:02:51.367Z,11.04
2023-03-21T17:05:17.910Z,10.91
2023-03-21T17:07:45.363Z,10.91
2023-03-21T17:10:16.271Z,10.84
2023-03-21T17:12:42.802Z,10.58
2023-03-21T17:15:09.589Z,10.55
2023-03-21T17:17:36.136Z,10.50
2023-03-21T17:20:06.823Z,10.24
2023-03-21T17:22:33.262Z,10.16
2023-03-21T17:24:59.836Z,10.00
2023-03-21T17:27:26.562Z,10.23
2023-03-21T17:29:54.867Z,10.01
2023-03-21T17:32:21.429Z,10.10
2023-03-21T17:34:48.184Z,10.08
2023-03-21T17:37:14.634Z,10.13
2023-03-21T17:39:41.024Z,10.13
2023-03-21T17:42:10.755Z,10.00
2023-03-21T17:44:37.166Z,9.92
2023-03-21T17:47:03.585Z,9.61
2023-03-21T17:49:30.045Z,9.68
2023-03-21T17:51:56.709Z,9.74
2023-03-21T17:54:23.104Z,9.67
2023-03-21T17:56:49.518Z,9.61
2023-03-21T17:59:16.736Z,9.35
2023-03-21T18:01:43.522Z,9.35
2023-03-21T18:04:10.712Z,9.31
2023-03-21T18:06:37.270Z,9.24
2023-03-21T18:09:04.697Z,9.18
2023-03-21T18:11:31.227Z,8.83
2023-03-21T18:14:13.811Z,8.85
2023-03-21T18:16:41.749Z,8.91
2023-03-21T18:19:08.350Z,8.82
2023-03-21T18:21:35.768Z,8.72
2023-03-21T18:24:02.679Z,8.63
2023-03-21T18:26:31.075Z,8.72
2023-03-21T18:31:57.684Z,8.44
2023-03-21T18:34:31.767Z,8.16
2023-03-21T18:36:58.617Z,8.21
2023-03-21T18:39:25.436Z,8.30
2023-03-21T18:41:51.888Z,8.12
2023-03-21T18:44:20.364Z,7.95
2023-03-21T18:46:48.929Z,7.96
2023-03-21T18:50:01.689Z,8.12
2023-03-21T18:52:02.665Z,8.09
2023-03-21T18:54:29.128Z,8.07
2023-03-21T18:59:42.154Z,8.00
2023-03-21T19:02:08.637Z,7.86
2023-03-21T19:04:37.330Z,7.63
2023-03-21T19:07:04.036Z,7.76
2023-03-21T19:09:32.101Z,7.85
2023-03-21T19:11:58.999Z,7.65
2023-03-21T19:14:25.430Z,7.47
2023-03-21T19:19:39.637Z,7.74
2023-03-21T19:22:06.191Z,7.74
2023-03-21T19:24:32.747Z,7.70
2023-03-21T19:26:59.224Z,7.58
2023-03-21T19:29:26.558Z,7.68
2023-03-21T19:31:53.294Z,7.65
2023-03-21T19:34:19.931Z,7.68
2023-03-21T19:36:51.438Z,7.66
2023-03-21T19:39:18.721Z,7.67
2023-03-21T19:41:45.240Z,7.64
2023-03-21T19:44:12.421Z,7.70
2023-03-21T19:46:38.845Z,7.62
2023-03-21T19:49:06.582Z,7.66
2023-03-21T19:51:33.473Z,7.37
2023-03-21T19:54:00.381Z,7.55
2023-03-21T19:56:27.870Z,7.57
2023-03-21T19:58:54.876Z,7.58
2023-03-21T20:01:21.431Z,7.43
2023-03-21T20:03:48.036Z,7.59
2023-03-21T20:06:14.521Z,7.54
2023-03-21T20:09:13.753Z,7.30
2023-03-21T20:11:27.266Z,7.19
2023-03-21T20:13:53.687Z,7.32
2023-03-21T20:16:20.669Z,7.43
2023-03-21T20:18:47.296Z,7.53
2023-03-21T20:21:18.471Z,7.53
2023-03-21T20:23:50.301Z,7.53
2023-03-21T20:26:16.775Z,7.51
2023-03-21T20:28:56.069Z,7.51
2023-03-21T20:31:29.956Z,7.49
2023-03-21T20:33:56.509Z,7.44
2023-03-21T20:36:39.781Z,7.53
2023-03-21T20:39:07.450Z,7.60
2023-03-21T20:41:33.886Z,7.55
2023-03-21T20:44:41.689Z,7.53
2023-03-21T20:46:46.889Z,7.47
2023-03-21T20:49:13.717Z,7.33
2023-03-21T20:54:27.420Z,7.23
2023-03-21T20:56:53.907Z,7.16
2023-03-21T20:59:26.498Z,7.11
2023-03-21T21:01:54.380Z,7.11
2023-03-21T21:04:21.024Z,6.96
2023-03-21T21:06:48.456Z,6.99
2023-03-21T21:09:15.062Z,7.01
2023-03-21T21:14:27.937Z,7.01
2023-03-21T21:16:54.719Z,6.98
2023-03-21T21:19:21.385Z,7.00
2023-03-21T21:21:47.812Z,6.85
2023-03-21T21:24:14.775Z,6.76
2023-03-21T21:26:41.376Z,6.87
2023-03-21T21:29:07.914Z,6.93
2023-03-21T21:31:34.507Z,6.96
2023-03-21T21:34:00.936Z,6.84
2023-03-21T21:36:27.342Z,6.89
2023-03-21T21:38:53.746Z,6.76
2023-03-21T21:41:20.591Z,6.87
2023-03-21T21:43:47.258Z,6.71
2023-03-21T21:46:13.751Z,6.71
2023-03-21T21:48:40.477Z,6.81
2023-03-21T21:51:07.098Z,6.75
2023-03-21T21:53:33.590Z,6.70
2023-03-21T21:56:00.247Z,6.67
2023-03-21T21:58:26.832Z,6.56
2023-03-21T22:00:53.315Z,6.60
2023-03-21T22:03:19.833Z,6.62
2023-03-21T22:05:46.270Z,6.51
2023-03-21T22:08:12.697Z,6.50
2023-03-21T22:10:39.310Z,6.48
2023-03-21T22:13:05.937Z,6.42
2023-03-21T22:15:32.297Z,6.34
2023-03-21T22:17:58.691Z,6.10
2023-03-21T22:20:25.104Z,6.12
2023-03-21T22:22:51.676Z,6.13
2023-03-21T22:25:18.193Z,5.95
2023-03-21T22:27:44.687Z,5.90
2023-03-21T22:30:12.068Z,6.03
2023-03-21T22:32:38.547Z,6.02
2023-03-21T22:35:05.358Z,6.17
2023-03-21T22:37:32.044Z,6.13
2023-03-21T22:39:58.533Z,6.08
2023-03-21T22:42:25.046Z,6.19
2023-03-21T22:44:51.620Z,6.15
2023-03-21T22:47:17.995Z,6.22
2023-03-21T22:49:44.846Z,6.32
2023-03-21T22:52:11.401Z,6.36
2023-03-21T22:54:37.946Z,6.41
2023-03-21T22:57:04.993Z,6.39
2023-03-21T22:59:31.534Z,6.41
2023-03-21T23:01:58.193Z,6.39
2023-03-21T23:04:25.265Z,6.35
2023-03-21T23:06:51.783Z,6.33
2023-03-21T23:09:18.428Z,6.31
2023-03-21T23:11:44.950Z,6.25
2023-03-21T23:14:11.396Z,6.44
2023-03-21T23:16:37.772Z,6.58
2023-03-21T23:19:04.198Z,6.74
2023-03-21T23:21:30.594Z,6.74
2023-03-21T23:23:57.059Z,6.78
2023-03-21T23:26:23.661Z,6.72
2023-03-21T23:28:50.169Z,6.77
2023-03-21T23:31:20.782Z,6.66
2023-03-21T23:33:47.472Z,6.59
2023-03-21T23:36:14.200Z,6.56
2023-03-21T23:38:40.677Z,6.49
2023-03-21T23:41:07.746Z,6.53
2023-03-21T23:43:34.132Z,6.67
2023-03-21T23:46:00.580Z,6.65
2023-03-21T23:48:27.577Z,6.55
2023-03-21T23:50:54.043Z,6.62
2023-03-21T23:53:20.458Z,6.55
2023-03-21T23:55:46.881Z,6.52
2023-03-21T23:58:13.293Z,6.54
